Time;durP1;ratioP1;P1;durP2;ratioP2;P2;SDS_P1;SDS_P2;PMS_P1;PMS_P2;Temp;Humidity;BMP_temperature;BMP_pressure;BME280_temperature;BME280_humidity;BME280_pressure;Samples;Min_cycle;Max_cycle;Signal;HPM_P1;HPM_P2
2023/06/24 00:00:45;;;;;;;2.40;2.00;;;;;;;17.43;100.00;91073.44;5031851;28;20040;-66
2023/06/24 00:03:12;;;;;;;1.92;1.83;;;;;;;17.45;100.00;91075.78;5031688;28;20483;-66
2023/06/24 00:05:38;;;;;;;1.52;1.48;;;;;;;17.44;100.00;91072.31;5031850;28;20033;-66
2023/06/24 00:08:07;;;;;;;37.63;2.67;;;;;;;17.44;100.00;91072.31;5032104;28;20034;-67
2023/06/24 00:10:33;;;;;;;3.72;3.20;;;;;;;17.51;100.00;91071.69;5041321;28;20100;-65
2023/06/24 00:13:01;;;;;;;3.00;2.70;;;;;;;17.61;100.00;91069.28;5040297;28;20021;-66
2023/06/24 00:15:27;;;;;;;2.58;2.10;;;;;;;17.60;100.00;91070.41;5039962;28;20025;-66
2023/06/24 00:17:52;;;;;;;4.03;2.78;;;;;;;17.48;100.00;91067.03;5041527;28;20032;-66
2023/06/24 00:20:19;;;;;;;2.63;2.05;;;;;;;17.43;100.00;91061.91;5040009;28;20109;-66
2023/06/24 00:22:48;;;;;;;2.35;2.15;;;;;;;17.49;100.00;91069.38;5040152;28;20429;-66
2023/06/24 00:25:14;;;;;;;2.40;2.20;;;;;;;17.55;100.00;91068.00;5041486;28;20036;-66
2023/06/24 00:27:41;;;;;;;2.67;2.50;;;;;;;17.58;100.00;91075.34;5040303;28;20018;-66
2023/06/24 00:30:07;;;;;;;2.25;2.05;;;;;;;17.59;100.00;91065.38;5039991;28;20502;-65
2023/06/24 00:32:32;;;;;;;5.80;3.50;;;;;;;17.53;100.00;91062.19;5041493;28;20057;-66
2023/06/24 00:34:57;;;;;;;3.00;2.70;;;;;;;17.48;100.00;91058.94;5039760;28;20098;-66
2023/06/24 00:37:23;;;;;;;2.10;2.00;;;;;;;17.46;100.00;91058.53;5040193;28;20064;-66
2023/06/24 00:39:48;;;;;;;1.90;1.80;;;;;;;17.38;100.00;91062.19;5041269;28;20031;-67
2023/06/24 00:42:14;;;;;;;5.78;3.53;;;;;;;17.28;100.00;91055.38;5039267;28;20032;-67
2023/06/24 00:44:39;;;;;;;3.63;2.35;;;;;;;17.16;100.00;91063.53;5040688;28;20024;-68
2023/06/24 00:47:06;;;;;;;4.32;2.85;;;;;;;17.08;100.00;91059.88;5040615;28;20109;-67
2023/06/24 00:49:31;;;;;;;5.25;3.72;;;;;;;17.04;100.00;91062.50;5039208;28;20418;-67
2023/06/24 00:51:56;;;;;;;2.47;2.25;;;;;;;17.00;100.00;91058.91;5041111;28;20033;-67
2023/06/24 00:54:22;;;;;;;6.95;3.08;;;;;;;16.95;100.00;91050.31;5040134;28;20495;-67
2023/06/24 00:56:47;;;;;;;3.20;2.38;;;;;;;16.88;100.00;91042.06;5039478;28;20476;-67
2023/06/24 00:59:15;;;;;;;2.22;1.88;;;;;;;16.94;100.00;91054.13;5041266;28;20029;-67
2023/06/24 01:01:41;;;;;;;6.85;2.85;;;;;;;16.98;100.00;91052.31;5040239;28;20022;-67
2023/06/24 01:04:07;;;;;;;3.35;3.08;;;;;;;17.01;100.00;91049.72;5039720;28;20055;-66
2023/06/24 01:06:35;;;;;;;8.70;3.95;;;;;;;17.09;100.00;91055.28;5041186;28;20021;-67
2023/06/24 01:09:02;;;;;;;3.33;3.03;;;;;;;17.17;100.00;91057.78;5039866;28;20487;-67
2023/06/24 01:11:31;;;;;;;2.45;2.22;;;;;;;17.14;100.00;91065.78;5039713;28;20025;-67
2023/06/24 01:13:57;;;;;;;1.77;1.67;;;;;;;17.12;100.00;91068.03;5039345;28;20529;-67
2023/06/24 01:16:45;;;;;;;2.40;2.13;;;;;;;17.01;100.00;91070.44;5040032;28;20021;-67
2023/06/24 01:19:13;;;;;;;2.50;2.40;;;;;;;16.91;100.00;91087.06;5040992;28;20037;-68
2023/06/24 01:21:49;;;;;;;5.50;2.30;;;;;;;16.84;100.00;91082.25;5039460;28;20048;-66
2023/06/24 01:24:31;;;;;;;2.75;2.55;;;;;;;16.73;100.00;91083.91;5030806;28;20118;-65
2023/06/24 01:27:02;;;;;;;6.50;3.13;;;;;;;16.71;100.00;91080.75;5030714;28;20018;-66
2023/06/24 01:29:45;;;;;;;3.72;2.88;;;;;;;16.62;100.00;91075.50;5030816;28;20061;-66
2023/06/24 01:32:23;;;;;;;2.40;2.25;;;;;;;16.62;100.00;91077.41;5030861;28;20022;-67
2023/06/24 01:34:57;;;;;;;2.10;1.58;;;;;;;16.60;100.00;91074.28;5046024;28;20492;-67
2023/06/24 01:37:47;;;;;;;2.42;2.22;;;;;;;16.59;100.00;91070.03;5030625;28;20053;-66
2023/06/24 01:40:27;;;;;;;2.35;2.15;;;;;;;16.56;100.00;91074.16;5045977;28;20026;-67
2023/06/24 01:42:56;;;;;;;5.60;2.45;;;;;;;16.60;100.00;91079.66;5030673;28;20112;-67
2023/06/24 01:45:26;;;;;;;3.90;2.63;;;;;;;16.56;100.00;91068.78;5030538;28;20052;-66
2023/06/24 01:48:01;;;;;;;2.92;2.47;;;;;;;16.34;100.00;91069.31;5030702;28;20029;-66
2023/06/24 01:50:29;;;;;;;3.63;3.33;;;;;;;16.13;100.00;91070.28;5031079;28;20057;-67
2023/06/24 01:52:57;;;;;;;2.08;1.90;;;;;;;16.01;100.00;91072.19;5039954;28;20546;-67
2023/06/24 01:55:24;;;;;;;1.98;1.88;;;;;;;16.02;100.00;91071.84;5038481;28;20025;-67
2023/06/24 01:57:51;;;;;;;3.58;2.80;;;;;;;15.94;100.00;91067.41;5040297;28;20057;-67
2023/06/24 02:00:17;;;;;;;2.83;2.55;;;;;;;15.88;100.00;91058.00;5040257;28;20022;-67
2023/06/24 02:02:44;;;;;;;3.17;2.47;;;;;;;15.84;100.00;91060.56;5038609;28;20505;-67
2023/06/24 02:05:11;;;;;;;3.97;3.22;;;;;;;15.85;100.00;91066.72;5040144;28;20021;-67
2023/06/24 02:07:39;;;;;;;2.95;1.73;;;;;;;15.82;100.00;91072.75;5043526;28;20096;-66
2023/06/24 02:10:05;;;;;;;2.45;2.25;;;;;;;15.87;100.00;91067.94;5042409;28;20466;-65
2023/06/24 02:12:32;;;;;;;6.88;1.77;;;;;;;15.93;100.00;91075.75;5043407;28;20025;-66
2023/06/24 02:14:59;;;;;;;2.10;1.90;;;;;;;15.96;100.00;91083.16;5043654;28;20059;-66
2023/06/24 02:17:26;;;;;;;2.38;2.17;;;;;;;15.95;100.00;91089.63;5041901;28;20025;-65
2023/06/24 02:19:53;;;;;;;2.88;2.63;;;;;;;15.96;100.00;91089.31;5043349;28;20608;-66
2023/06/24 02:22:20;;;;;;;5.97;2.28;;;;;;;15.94;100.00;91093.41;5043595;28;20065;-66
2023/06/24 02:24:47;;;;;;;1.85;1.75;;;;;;;15.79;100.00;91097.59;5041670;28;20025;-66
2023/06/24 02:27:13;;;;;;;4.43;3.15;;;;;;;15.76;100.00;91098.22;5042943;28;20053;-66
2023/06/24 02:29:40;;;;;;;3.58;2.38;;;;;;;15.74;100.00;91108.53;5043453;28;20071;-66
2023/06/24 02:32:06;;;;;;;2.20;1.70;;;;;;;15.67;100.00;91117.13;5041691;28;20025;-65
2023/06/24 02:34:32;;;;;;;3.30;2.65;;;;;;;15.68;100.00;91123.28;5042792;28;20458;-66
2023/06/24 02:36:57;;;;;;;1.50;1.40;;;;;;;15.64;100.00;91120.50;5042983;28;20124;-66
2023/06/24 02:39:22;;;;;;;6.32;3.22;;;;;;;15.71;100.00;91122.59;5041475;28;20030;-67
2023/06/24 02:41:49;;;;;;;3.28;3.00;;;;;;;15.73;100.00;91120.38;5043282;28;20025;-66
2023/06/24 02:44:15;;;;;;;5.65;4.60;;;;;;;15.78;100.00;91118.25;5042406;28;20025;-66
2023/06/24 02:46:42;;;;;;;4.75;4.28;;;;;;;15.75;100.00;91120.81;5041489;28;20029;-66
2023/06/24 02:49:10;;;;;;;4.43;4.05;;;;;;;15.79;100.00;91119.03;5041529;28;20033;-66
2023/06/24 02:51:37;;;;;;;2.85;2.70;;;;;;;15.66;100.00;91115.56;5042102;28;20079;-66
2023/06/24 02:54:03;;;;;;;2.85;2.58;;;;;;;15.56;100.00;91107.91;5043087;28;20028;-67
2023/06/24 02:56:28;;;;;;;5.85;3.30;;;;;;;15.42;100.00;91116.28;5041583;28;20018;-66
2023/06/24 02:58:54;;;;;;;4.00;2.72;;;;;;;15.40;100.00;91117.72;5042257;28;20214;-65
2023/06/24 03:01:25;;;;;;;3.50;3.10;;;;;;;15.33;100.00;91115.59;5043041;28;20028;-66
2023/06/24 03:03:55;;;;;;;2.13;1.92;;;;;;;15.28;100.00;91121.16;5039470;28;20557;-66
2023/06/24 03:06:21;;;;;;;3.22;3.00;;;;;;;15.24;100.00;91126.41;5041211;28;20025;-66
2023/06/24 03:08:49;;;;;;;7.05;2.90;;;;;;;15.32;100.00;91129.34;5038362;28;20105;-66
2023/06/24 03:11:15;;;;;;;3.40;3.10;;;;;;;15.32;100.00;91126.66;5041879;28;20056;-66
2023/06/24 03:13:41;;;;;;;3.45;2.55;;;;;;;15.36;100.00;91124.88;5042760;28;20021;-66
2023/06/24 03:16:11;;;;;;;4.63;3.00;;;;;;;15.36;100.00;91132.91;5040642;28;20025;-66
2023/06/24 03:18:38;;;;;;;1.90;1.80;;;;;;;15.36;100.00;91133.69;5041316;28;20033;-66
2023/06/24 03:21:04;;;;;;;3.53;3.10;;;;;;;15.31;100.00;91135.81;5042705;28;20096;-66
2023/06/24 03:23:29;;;;;;;3.00;2.28;;;;;;;15.38;100.00;91134.16;5040976;28;20029;-66
2023/06/24 03:25:55;;;;;;;2.65;2.45;;;;;;;15.41;100.00;91138.06;5041543;28;20024;-66
2023/06/24 03:28:20;;;;;;;3.78;2.78;;;;;;;15.52;100.00;91136.53;5042425;28;20053;-66
2023/06/24 03:30:45;;;;;;;3.33;2.95;;;;;;;15.69;100.00;91141.72;5040554;28;20025;-66
2023/06/24 03:33:16;;;;;;;3.08;2.88;;;;;;;15.88;100.00;91139.25;5040476;28;20395;-66
2023/06/24 03:35:44;;;;;;;7.15;3.95;;;;;;;16.03;100.00;91145.06;5042323;28;20060;-66
2023/06/24 03:38:11;;;;;;;2.65;2.45;;;;;;;16.22;100.00;91142.59;5040825;28;20065;-66
2023/06/24 03:40:37;;;;;;;3.17;2.63;;;;;;;16.32;100.00;91152.09;5041110;28;20024;-66
2023/06/24 03:43:02;;;;;;;2.28;2.17;;;;;;;16.43;100.00;91155.91;5042450;28;20041;-67
2023/06/24 03:45:28;;;;;;;3.25;2.95;;;;;;;16.34;100.00;91150.66;5040358;28;20638;-67
2023/06/24 03:47:53;;;;;;;2.25;2.05;;;;;;;16.48;100.00;91142.22;5041422;28;20021;-67
2023/06/24 03:50:18;;;;;;;3.17;2.50;;;;;;;16.50;100.00;91147.28;5041730;28;20055;-67
2023/06/24 03:52:44;;;;;;;4.22;2.17;;;;;;;16.53;100.00;91139.31;5039976;28;20056;-67
2023/06/24 03:55:10;;;;;;;2.30;2.20;;;;;;;16.63;100.00;91124.63;5041633;28;20017;-67
2023/06/24 03:57:36;;;;;;;4.40;3.67;;;;;;;16.70;100.00;91135.59;5041192;28;20556;-66
2023/06/24 04:00:12;;;;;;;1.70;1.60;;;;;;;16.71;100.00;91126.41;5040010;28;20146;-66
2023/06/24 04:02:37;;;;;;;1.73;1.63;;;;;;;16.85;100.00;91144.84;5039907;28;20025;-66
2023/06/24 04:05:06;;;;;;;1.25;1.25;;;;;;;16.83;100.00;91150.56;5039705;28;20104;-67
2023/06/24 04:07:31;;;;;;;5.90;3.30;;;;;;;16.93;100.00;91150.09;5041338;28;20094;-66
2023/06/24 04:09:57;;;;;;;7.40;3.35;;;;;;;17.08;100.00;91147.81;5041178;28;20045;-66
2023/06/24 04:12:23;;;;;;;3.55;1.80;;;;;;;17.21;100.00;91157.38;5039616;28;20483;-66
2023/06/24 04:14:48;;;;;;;3.00;2.80;;;;;;;17.39;100.00;91168.63;5041539;28;20078;-66
2023/06/24 04:17:14;;;;;;;2.03;1.92;;;;;;;17.51;100.00;91174.69;5040544;28;20451;-66
2023/06/24 04:19:39;;;;;;;3.60;3.30;;;;;;;17.57;100.00;91175.25;5039889;28;20017;-67
2023/06/24 04:22:05;;;;;;;5.13;2.75;;;;;;;17.59;100.00;91165.69;5041566;28;20025;-67
2023/06/24 04:24:31;;;;;;;3.83;2.90;;;;;;;17.69;100.00;91171.75;5039886;28;20017;-67
2023/06/24 04:26:57;;;;;;;5.97;2.72;;;;;;;17.79;100.00;91173.91;5040665;28;20021;-66
2023/06/24 04:29:23;;;;;;;7.25;3.60;;;;;;;17.92;100.00;91170.78;5040865;28;20025;-67
2023/06/24 04:31:48;;;;;;;3.30;2.50;;;;;;;17.80;100.00;91178.16;5039624;28;20106;-66
2023/06/24 04:34:14;;;;;;;1.45;1.35;;;;;;;17.87;100.00;91179.13;5040474;28;20448;-65
2023/06/24 04:36:39;;;;;;;2.65;2.42;;;;;;;18.02;100.00;91174.88;5040855;28;20519;-65
2023/06/24 04:39:04;;;;;;;2.80;1.70;;;;;;;18.20;100.00;91175.31;5039187;28;20017;-66
2023/06/24 04:41:31;;;;;;;4.28;3.55;;;;;;;18.33;100.00;91171.41;5040943;28;20017;-66
2023/06/24 04:43:57;;;;;;;1.98;1.73;;;;;;;18.54;100.00;91171.09;5040466;28;20041;-66
2023/06/24 04:46:22;;;;;;;3.20;2.60;;;;;;;18.57;100.00;91175.78;5039353;28;20037;-66
2023/06/24 04:48:47;;;;;;;2.47;2.28;;;;;;;18.63;100.00;91174.41;5036563;28;20108;-66
2023/06/24 04:51:13;;;;;;;5.50;3.58;;;;;;;18.94;100.00;91186.25;5040556;28;20017;-66
2023/06/24 04:53:38;;;;;;;2.47;2.38;;;;;;;19.35;100.00;91182.84;5040665;28;20028;-66
2023/06/24 04:56:03;;;;;;;2.22;2.05;;;;;;;19.64;100.00;91178.03;5039303;28;20021;-67
2023/06/24 04:58:29;;;;;;;2.72;2.30;;;;;;;19.92;100.00;91173.16;5040944;28;20481;-66
2023/06/24 05:00:54;;;;;;;3.10;2.83;;;;;;;20.03;100.00;91173.31;5039992;28;20018;-66
2023/06/24 05:03:20;;;;;;;2.53;2.38;;;;;;;19.98;100.00;91166.28;5039381;28;20029;-66
2023/06/24 05:05:45;;;;;;;2.83;2.00;;;;;;;20.04;100.00;91170.28;5050408;28;20025;-65
2023/06/24 05:08:11;;;;;;;3.13;2.92;;;;;;;20.40;100.00;91170.06;5050799;28;20108;-66
2023/06/24 05:10:36;;;;;;;2.70;2.50;;;;;;;20.56;100.00;91171.50;5050919;28;20036;-67
2023/06/24 05:13:01;;;;;;;3.08;2.78;;;;;;;20.45;100.00;91165.16;5041554;28;20029;-66
2023/06/24 05:15:27;;;;;;;7.63;4.38;;;;;;;20.51;100.00;91162.91;5025960;28;20033;-67
2023/06/24 05:17:52;;;;;;;6.53;3.72;;;;;;;20.75;100.00;91161.72;5012158;28;20120;-66
2023/06/24 05:20:17;;;;;;;4.80;2.97;;;;;;;20.76;100.00;91164.06;5011060;28;20029;-66
2023/06/24 05:22:43;;;;;;;4.55;2.90;;;;;;;21.03;100.00;91164.84;5026087;28;20063;-65
2023/06/24 05:25:09;;;;;;;3.63;2.38;;;;;;;21.26;100.00;91155.84;5040903;28;20068;-66
2023/06/24 05:27:34;;;;;;;3.38;3.08;;;;;;;21.25;100.00;91154.31;5038832;28;20482;-66
2023/06/24 05:30:00;;;;;;;5.85;4.03;;;;;;;21.33;100.00;91150.53;5040480;28;20017;-66
2023/06/24 05:32:25;;;;;;;5.05;2.88;;;;;;;21.75;100.00;91152.94;5039821;28;20052;-66
2023/06/24 05:34:50;;;;;;;4.65;3.50;;;;;;;22.01;100.00;91147.41;5038248;28;20021;-66
2023/06/24 05:37:16;;;;;;;3.80;2.50;;;;;;;22.25;100.00;91142.59;5043575;28;20526;-65
2023/06/24 05:39:41;;;;;;;6.40;3.15;;;;;;;22.35;100.00;91139.97;5047270;28;20033;-65
2023/06/24 05:42:07;;;;;;;5.53;2.53;;;;;;;22.79;100.00;91147.25;5044113;28;21179;-65
2023/06/24 05:44:33;;;;;;;2.95;1.98;;;;;;;22.93;100.00;91143.88;5042552;28;20076;-66
2023/06/24 05:46:59;;;;;;;2.60;2.35;;;;;;;23.16;100.00;91146.31;5043936;28;20029;-66
2023/06/24 05:49:24;;;;;;;3.20;2.33;;;;;;;23.30;100.00;91132.81;5046821;28;20120;-66
2023/06/24 05:51:50;;;;;;;8.30;3.25;;;;;;;24.56;100.00;91137.41;5054148;28;20481;-65
2023/06/24 05:54:15;;;;;;;3.78;3.47;;;;;;;27.74;100.00;91141.38;5045959;28;20112;-65
2023/06/24 05:56:41;;;;;;;6.63;3.80;;;;;;;30.14;100.00;91141.81;5044369;28;20045;-65
2023/06/24 05:59:06;;;;;;;3.40;3.20;;;;;;;32.00;68.62;91146.28;5041815;28;20116;-65
2023/06/24 06:01:32;;;;;;;3.30;3.00;;;;;;;33.39;57.52;91140.09;5042026;28;20112;-69
2023/06/24 06:03:57;;;;;;;5.55;3.85;;;;;;;33.90;54.64;91139.94;5041103;28;20116;-69
2023/06/24 06:06:22;;;;;;;6.10;3.22;;;;;;;34.22;51.65;91136.78;5044216;28;20490;-69
2023/06/24 06:08:48;;;;;;;2.47;2.22;;;;;;;35.31;47.38;91132.97;5042614;28;20022;-69
2023/06/24 06:11:13;;;;;;;6.63;4.10;;;;;;;35.68;47.64;91130.28;5043399;28;20467;-69
2023/06/24 06:13:39;;;;;;;3.78;3.38;;;;;;;37.36;44.10;91140.09;5043697;28;20037;-69
2023/06/24 06:16:04;;;;;;;2.58;2.35;;;;;;;38.35;41.24;91134.31;5034182;28;20022;-70
2023/06/24 06:18:30;;;;;;;2.92;2.60;;;;;;;38.82;39.80;91136.16;5027421;28;20407;-66
2023/06/24 06:20:55;;;;;;;15.77;3.00;;;;;;;37.01;41.55;91132.25;5026172;28;20411;-67
2023/06/24 06:23:20;;;;;;;5.93;2.33;;;;;;;36.87;42.04;91119.06;5031904;28;20542;-68
2023/06/24 06:25:46;;;;;;;4.38;3.50;;;;;;;37.64;42.38;91126.81;5023199;28;20022;-66
2023/06/24 06:28:11;;;;;;;2.28;1.83;;;;;;;37.69;41.09;91132.47;5027681;28;20557;-66
2023/06/24 06:30:37;;;;;;;4.68;3.55;;;;;;;37.84;40.96;91129.78;5026963;28;20033;-67
2023/06/24 06:33:02;;;;;;;4.95;2.53;;;;;;;38.62;40.82;91131.25;5033313;28;20114;-67
2023/06/24 06:35:28;;;;;;;3.85;2.60;;;;;;;39.55;38.70;91125.38;5033278;28;20078;-66
2023/06/24 06:37:54;;;;;;;2.72;2.53;;;;;;;40.02;37.63;91119.41;5033220;28;20079;-67
2023/06/24 06:40:22;;;;;;;4.88;3.40;;;;;;;39.69;38.09;91125.31;5033364;28;20029;-67
2023/06/24 06:42:48;;;;;;;2.47;1.90;;;;;;;41.24;35.04;91124.66;5018565;28;20035;-69
2023/06/24 06:45:13;;;;;;;3.50;3.20;;;;;;;40.19;37.72;91132.78;5012335;28;20434;-68
2023/06/24 06:47:39;;;;;;;2.88;2.50;;;;;;;40.24;37.02;91129.28;5013122;28;20038;-71
2023/06/24 06:50:05;;;;;;;3.47;2.35;;;;;;;41.22;35.30;91127.16;5017306;28;20025;-70
2023/06/24 06:52:30;;;;;;;4.80;2.30;;;;;;;42.94;33.63;91122.09;5039964;28;20032;-71
2023/06/24 06:54:56;;;;;;;4.25;3.88;;;;;;;42.53;34.10;91121.75;5052833;28;20047;-69
2023/06/24 06:57:22;;;;;;;4.40;2.78;;;;;;;41.74;35.04;91129.81;5052874;28;20040;-69
2023/06/24 06:59:49;;;;;;;3.42;3.13;;;;;;;40.96;35.63;91126.47;5052611;28;20025;-69
2023/06/24 07:02:15;;;;;;;2.88;1.98;;;;;;;41.87;35.16;91121.00;5052687;28;20107;-68
2023/06/24 07:04:40;;;;;;;5.47;3.05;;;;;;;43.56;33.50;91126.38;5052712;28;20143;-68
2023/06/24 07:07:05;;;;;;;3.88;2.72;;;;;;;44.38;32.98;91127.94;5051454;28;20035;-70
2023/06/24 07:09:31;;;;;;;2.53;2.08;;;;;;;42.66;34.88;91122.78;5036723;28;20113;-69
2023/06/24 07:11:56;;;;;;;2.70;2.47;;;;;;;41.28;36.00;91124.44;5032749;28;20051;-69
2023/06/24 07:14:22;;;;;;;4.72;2.55;;;;;;;42.78;34.30;91123.56;5032211;28;20025;-70
2023/06/24 07:16:47;;;;;;;3.08;2.83;;;;;;;42.71;34.18;91138.06;5014802;28;20044;-71
2023/06/24 07:19:13;;;;;;;5.15;3.83;;;;;;;43.34;33.60;91126.41;5032565;28;20120;-69
2023/06/24 07:21:39;;;;;;;3.60;2.58;;;;;;;43.94;33.34;91135.22;5034974;28;20339;-70
2023/06/24 07:24:05;;;;;;;2.80;2.03;;;;;;;42.59;34.52;91128.88;5032267;28;20495;-68
2023/06/24 07:26:30;;;;;;;3.35;2.83;;;;;;;42.00;35.11;91121.31;5045311;28;20029;-66
2023/06/24 07:28:59;;;;;;;3.15;2.28;;;;;;;42.59;33.75;91123.28;5051913;28;20029;-69
2023/06/24 07:31:24;;;;;;;2.95;2.58;;;;;;;41.85;35.04;91135.47;5052146;28;20029;-68
2023/06/24 07:33:50;;;;;;;6.45;2.80;;;;;;;40.35;37.19;91124.59;5052191;28;20036;-67
2023/06/24 07:36:15;;;;;;;2.55;2.35;;;;;;;40.79;37.69;91128.31;5026261;28;20024;-68
2023/06/24 07:38:40;;;;;;;21.45;3.20;;;;;;;42.34;35.78;91127.03;5034547;28;20407;-68
2023/06/24 07:41:06;;;;;;;3.05;2.60;;;;;;;42.64;34.85;91132.97;5041013;28;20034;-67
2023/06/24 07:43:31;;;;;;;4.95;3.00;;;;;;;41.57;35.72;91126.91;5020177;28;20033;-67
2023/06/24 07:45:57;;;;;;;2.15;1.98;;;;;;;43.08;34.53;91123.06;5029118;28;20025;-67
2023/06/24 07:48:22;;;;;;;3.17;2.97;;;;;;;41.09;35.90;91128.84;5042867;28;20588;-67
2023/06/24 07:50:47;;;;;;;5.25;3.33;;;;;;;42.11;34.67;91124.16;5029894;28;20018;-69
2023/06/24 07:53:13;;;;;;;4.13;2.85;;;;;;;41.32;35.45;91121.41;5014758;28;20531;-66
2023/06/24 07:55:38;;;;;;;2.03;1.85;;;;;;;41.12;35.90;91117.44;5012019;28;20042;-67
2023/06/24 07:58:04;;;;;;;3.90;2.85;;;;;;;40.93;36.35;91121.88;5012103;28;20377;-71
2023/06/24 08:00:30;;;;;;;4.53;2.30;;;;;;;41.73;35.93;91124.72;5014308;28;20032;-67
2023/06/24 08:02:57;;;;;;;3.55;2.95;;;;;;;41.14;35.62;91133.69;5011750;28;20026;-69
2023/06/24 08:05:23;;;;;;;3.20;2.67;;;;;;;41.00;36.57;91133.34;5016396;28;20034;-71
2023/06/24 08:07:51;;;;;;;3.65;2.60;;;;;;;40.83;35.00;91123.31;5018731;28;20088;-72
2023/06/24 08:10:16;;;;;;;43.38;27.15;;;;;;;39.96;38.03;91129.75;5038466;28;20483;-72
2023/06/24 08:12:42;;;;;;;5.53;5.03;;;;;;;40.62;35.89;91122.59;5040130;28;20079;-72
2023/06/24 08:15:08;;;;;;;2.28;2.13;;;;;;;41.83;35.22;91138.00;5039447;28;20037;-72
2023/06/24 08:17:33;;;;;;;4.55;2.67;;;;;;;42.44;33.40;91131.09;5036356;28;20060;-69
2023/06/24 08:19:59;;;;;;;3.40;2.53;;;;;;;43.24;31.94;91133.50;5031456;28;20079;-70
2023/06/24 08:22:24;;;;;;;3.25;2.78;;;;;;;43.60;31.75;91132.47;5031457;28;20021;-69
2023/06/24 08:24:50;;;;;;;4.50;3.25;;;;;;;43.63;32.47;91147.50;5032252;28;20034;-68
2023/06/24 08:27:15;;;;;;;2.42;2.25;;;;;;;43.01;32.07;91139.13;5033846;28;20513;-68
2023/06/24 08:29:41;;;;;;;4.25;2.35;;;;;;;43.34;32.49;91140.41;5031077;28;20025;-69
2023/06/24 08:32:06;;;;;;;2.75;2.53;;;;;;;42.37;32.23;91143.56;5031442;28;20029;-70
2023/06/24 08:34:33;;;;;;;4.38;3.75;;;;;;;42.70;32.25;91136.53;5030939;28;20565;-72
2023/06/24 08:36:58;;;;;;;2.83;2.55;;;;;;;42.10;34.44;91133.81;5030551;28;20519;-69
2023/06/24 08:39:23;;;;;;;4.32;3.25;;;;;;;42.56;34.49;91134.72;5015703;28;20156;-68
